Time;durP1;ratioP1;P1;durP2;ratioP2;P2;SDS_P1;SDS_P2;PMS_P1;PMS_P2;Temp;Humidity;BMP_temperature;BMP_pressure;BME280_temperature;BME280_humidity;BME280_pressure;Samples;Min_cycle;Max_cycle;Signal;HPM_P1;HPM_P2
2023/11/02 00:01:09;;;;;;;6.47;2.60;;;;;;;10.20;100.00;98680.13;5004273;28;20145;-81
2023/11/02 00:03:37;;;;;;;5.65;2.17;;;;;;;10.26;100.00;98681.16;5003761;28;20189;-81
2023/11/02 00:06:35;;;;;;;8.75;2.60;;;;;;;10.33;100.00;98681.97;5000223;28;20141;-82
2023/11/02 00:09:36;;;;;;;7.97;3.17;;;;;;;10.41;100.00;98666.03;5010298;28;20054;-79
2023/11/02 00:12:07;;;;;;;7.13;2.78;;;;;;;10.44;100.00;98673.47;4999117;28;20429;-80
2023/11/02 00:14:43;;;;;;;4.65;2.65;;;;;;;10.43;100.00;98665.84;4998934;28;20078;-80
2023/11/02 00:17:58;;;;;;;5.28;2.60;;;;;;;10.48;100.00;98666.03;5006117;28;20532;-80
2023/11/02 00:20:36;;;;;;;4.72;2.80;;;;;;;10.54;100.00;98657.38;4999771;28;20116;-81
2023/11/02 00:23:03;;;;;;;9.57;2.85;;;;;;;10.59;100.00;98650.53;4998982;28;20109;-80
2023/11/02 00:25:53;;;;;;;10.57;2.75;;;;;;;10.62;100.00;98639.66;4999034;28;20058;-80
2023/11/02 00:28:22;;;;;;;4.45;2.67;;;;;;;10.75;100.00;98617.09;4999169;28;20097;-80
2023/11/02 00:30:50;;;;;;;5.93;2.60;;;;;;;10.74;100.00;98621.53;5007470;28;20069;-78
2023/11/02 00:33:18;;;;;;;6.07;2.63;;;;;;;10.78;100.00;98612.28;5006043;28;20122;-80
2023/11/02 00:35:47;;;;;;;6.25;2.72;;;;;;;10.81;100.00;98601.41;4998648;28;20070;-80
2023/11/02 00:38:22;;;;;;;6.78;2.55;;;;;;;10.84;100.00;98587.91;5004848;28;20081;-79
2023/11/02 00:40:49;;;;;;;7.05;2.63;;;;;;;10.83;100.00;98572.41;5008722;28;20049;-81
2023/11/02 00:43:16;;;;;;;5.13;2.45;;;;;;;10.88;100.00;98573.38;4999884;28;20133;-81
2023/11/02 00:45:44;;;;;;;4.13;2.22;;;;;;;10.95;100.00;98571.53;5008977;28;20046;-81
2023/11/02 00:48:17;;;;;;;3.95;2.50;;;;;;;10.97;100.00;98556.41;5000249;28;20061;-82
2023/11/02 00:51:00;;;;;;;;;;;;;;;11.03;100.00;98540.91;5008208;28;20088;-80
2023/11/02 00:53:27;;;;;;;6.47;2.38;;;;;;;11.06;100.00;98522.16;5009775;28;20478;-81
2023/11/02 00:55:54;;;;;;;5.53;2.50;;;;;;;11.07;100.00;98526.38;5010591;28;20069;-81
2023/11/02 00:58:28;;;;;;;6.72;2.60;;;;;;;11.07;99.80;98510.69;5020266;28;20039;-81
2023/11/02 01:01:05;;;;;;;6.20;2.90;;;;;;;11.08;99.66;98513.09;5017195;28;20046;-80
2023/11/02 01:03:33;;;;;;;7.65;2.88;;;;;;;11.05;99.72;98503.03;5019308;28;20101;-80
2023/11/02 01:06:00;;;;;;;6.50;2.63;;;;;;;11.00;99.60;98488.97;5014643;28;20046;-80
2023/11/02 01:08:31;;;;;;;5.43;1.88;;;;;;;11.02;99.39;98489.56;5013866;28;20074;-80
2023/11/02 01:10:57;;;;;;;4.32;1.80;;;;;;;10.98;99.29;98476.91;5012431;28;20050;-79
2023/11/02 01:13:24;;;;;;;3.17;1.83;;;;;;;11.02;98.99;98466.00;5002259;28;20182;-79
2023/11/02 01:16:10;;;;;;;3.80;2.13;;;;;;;11.11;98.49;98462.13;5008864;28;20049;-79
2023/11/02 01:18:42;;;;;;;5.88;2.60;;;;;;;11.11;97.92;98443.81;5002681;28;20085;-81
2023/11/02 01:21:09;;;;;;;4.43;2.25;;;;;;;11.09;98.04;98435.38;5000569;28;20509;-79
2023/11/02 01:23:36;;;;;;;4.63;2.08;;;;;;;11.10;98.04;98429.94;5001065;28;20058;-80
2023/11/02 01:26:04;;;;;;;5.47;2.42;;;;;;;11.12;98.15;98429.72;5000451;28;20054;-80
2023/11/02 01:28:53;;;;;;;5.47;2.50;;;;;;;11.14;97.95;98420.63;4999848;28;20417;-79
2023/11/02 01:31:22;;;;;;;6.15;2.35;;;;;;;11.16;97.82;98426.47;4997596;28;20121;-80
2023/11/02 01:33:54;;;;;;;3.70;2.30;;;;;;;11.16;97.55;98420.41;5008940;28;20141;-81
2023/11/02 01:36:31;;;;;;;3.42;1.80;;;;;;;11.21;97.41;98413.53;5005575;28;20050;-82
2023/11/02 01:39:01;;;;;;;6.85;2.25;;;;;;;11.19;97.30;98406.91;5002556;28;20081;-82
2023/11/02 01:41:38;;;;;;;5.80;2.30;;;;;;;11.11;97.27;98391.47;5000696;28;20082;-81
2023/11/02 01:44:16;;;;;;;9.20;3.22;;;;;;;11.17;97.23;98390.63;5003047;28;20132;-81
2023/11/02 01:46:53;;;;;;;3.90;2.10;;;;;;;11.15;97.66;98376.94;5003680;28;20082;-80
2023/11/02 01:49:29;;;;;;;6.75;1.90;;;;;;;11.17;97.11;98369.69;4998930;28;20085;-82
2023/11/02 01:52:04;;;;;;;4.28;2.38;;;;;;;11.18;97.46;98359.00;5007670;28;20124;-81
2023/11/02 01:54:44;;;;;;;4.90;2.28;;;;;;;11.17;97.61;98353.97;4999385;28;20227;-81
2023/11/02 01:57:23;;;;;;;10.00;3.05;;;;;;;11.20;97.52;98345.69;4999547;28;20051;-82
2023/11/02 01:59:55;;;;;;;10.38;2.90;;;;;;;11.24;97.41;98344.25;4999514;28;20091;-81
2023/11/02 02:02:29;;;;;;;5.97;2.72;;;;;;;11.16;98.04;98339.28;4998735;28;20101;-79
2023/11/02 02:05:02;;;;;;;6.90;2.65;;;;;;;11.10;98.59;98327.06;4996812;28;20061;-80
2023/11/02 02:07:40;;;;;;;4.07;2.35;;;;;;;11.04;99.13;98323.47;5001952;28;20351;-81
2023/11/02 02:10:14;;;;;;;6.78;2.72;;;;;;;11.06;99.67;98326.69;4998662;28;20121;-81
2023/11/02 02:13:00;;;;;;;5.80;2.75;;;;;;;11.10;99.92;98319.19;4998415;28;20416;-79
2023/11/02 02:15:33;;;;;;;6.30;2.38;;;;;;;11.10;99.76;98320.00;4998691;28;20141;-79
2023/11/02 02:18:05;;;;;;;;;;;;;;;11.13;99.37;98287.34;5002720;28;20168;-80
2023/11/02 02:20:33;;;;;;;7.35;2.90;;;;;;;11.08;99.48;98271.50;4998089;28;19991;-80
2023/11/02 02:23:08;;;;;;;5.45;2.70;;;;;;;11.10;99.49;98266.84;4997928;28;20146;-80
2023/11/02 02:25:42;;;;;;;4.18;2.65;;;;;;;11.10;99.23;98259.00;4997752;28;20265;-82
2023/11/02 02:28:40;;;;;;;7.05;2.92;;;;;;;11.13;99.12;98254.13;5004068;28;20486;-79
2023/11/02 02:31:30;;;;;;;7.97;3.00;;;;;;;11.15;99.15;98253.91;5000879;28;20073;-81
2023/11/02 02:34:23;;;;;;;6.75;2.60;;;;;;;11.18;98.82;98256.09;5016628;28;20423;-81
2023/11/02 02:37:03;;;;;;;8.88;2.50;;;;;;;11.18;98.77;98258.72;4994923;28;20462;-80
2023/11/02 02:39:35;;;;;;;8.60;2.88;;;;;;;11.13;98.61;98248.09;4995604;28;20133;-78
2023/11/02 02:42:04;;;;;;;6.77;3.27;;;;;;;11.10;98.72;98227.59;4995174;28;20133;-79
2023/11/02 02:44:32;;;;;;;7.47;3.00;;;;;;;11.08;99.28;98208.69;4994853;28;20281;-78
2023/11/02 02:47:03;;;;;;;8.43;2.83;;;;;;;11.06;99.31;98195.03;4997341;28;20081;-81
2023/11/02 02:49:39;;;;;;;8.77;2.85;;;;;;;11.08;99.28;98177.28;4997549;28;20054;-80
2023/11/02 02:52:09;;;;;;;5.45;2.83;;;;;;;11.11;98.93;98155.91;5000826;28;20103;-79
2023/11/02 02:54:38;;;;;;;4.60;2.85;;;;;;;11.13;99.05;98146.03;5000520;28;20054;-80
2023/11/02 02:57:08;;;;;;;6.65;2.80;;;;;;;11.13;99.05;98159.13;4994901;28;20129;-79
2023/11/02 02:59:40;;;;;;;8.30;3.10;;;;;;;11.10;99.36;98152.50;5002847;28;20050;-79
2023/11/02 03:02:08;;;;;;;5.80;3.03;;;;;;;11.08;99.58;98146.69;4993907;28;20420;-78
2023/11/02 03:04:36;;;;;;;8.20;3.30;;;;;;;11.07;99.47;98108.44;4994230;28;20084;-79
2023/11/02 03:07:03;;;;;;;3.05;2.63;;;;;;;11.09;99.54;98100.38;4995279;28;20129;-79
2023/11/02 03:09:35;;;;;;;9.27;3.40;;;;;;;11.13;99.05;98114.63;4999929;28;20073;-80
2023/11/02 03:12:04;;;;;;;6.32;3.10;;;;;;;11.13;99.28;98109.38;4995008;28;20125;-80
2023/11/02 03:14:34;;;;;;;7.50;3.40;;;;;;;11.12;99.28;98090.25;4994374;28;20129;-79
2023/11/02 03:17:07;;;;;;;7.93;3.55;;;;;;;11.18;98.86;98089.38;4993214;28;20060;-79
2023/11/02 03:19:44;;;;;;;9.23;4.47;;;;;;;11.18;98.76;98072.88;4993539;28;20137;-79
2023/11/02 03:22:14;;;;;;;6.35;3.30;;;;;;;11.21;98.66;98068.00;4993554;28;20055;-78
2023/11/02 03:24:52;;;;;;;4.43;3.13;;;;;;;11.23;98.07;98042.41;4993681;28;20081;-78
2023/11/02 03:27:29;;;;;;;8.93;3.92;;;;;;;11.23;97.48;98028.53;4992342;28;20081;-77
2023/11/02 03:30:03;;;;;;;10.07;3.58;;;;;;;11.24;97.39;98009.97;4993252;28;20137;-78
2023/11/02 03:32:41;;;;;;;8.63;3.38;;;;;;;11.29;96.44;97986.53;4996021;28;20097;-78
2023/11/02 03:35:15;;;;;;;5.10;3.15;;;;;;;11.38;95.87;97970.47;4994662;28;20133;-79
2023/11/02 03:37:55;;;;;;;8.98;3.50;;;;;;;11.38;95.46;97958.19;5002422;28;20136;-78
2023/11/02 03:40:34;;;;;;;6.25;3.47;;;;;;;11.37;95.00;97963.66;4994687;28;20515;-78
2023/11/02 03:43:05;;;;;;;6.00;3.03;;;;;;;11.44;94.79;97973.00;4995204;28;20058;-80
2023/11/02 03:45:48;;;;;;;8.45;3.67;;;;;;;11.39;94.89;97948.50;5002272;28;20054;-80
2023/11/02 03:48:27;;;;;;;7.75;3.15;;;;;;;11.35;95.24;97910.72;5004829;28;20259;-79
2023/11/02 03:51:17;;;;;;;8.85;3.20;;;;;;;11.37;94.62;97882.50;4994825;28;20081;-79
2023/11/02 03:53:55;;;;;;;7.93;3.13;;;;;;;11.40;94.35;97887.28;4996029;28;20149;-81
2023/11/02 03:56:34;;;;;;;5.50;3.00;;;;;;;11.41;94.28;97894.91;4996683;28;20082;-80
2023/11/02 03:59:08;;;;;;;4.75;2.70;;;;;;;11.46;93.91;97876.69;4996650;28;20050;-80
2023/11/02 04:01:45;;;;;;;6.35;2.95;;;;;;;11.43;93.66;97882.38;4995739;28;20541;-81
2023/11/02 04:04:22;;;;;;;6.63;3.13;;;;;;;11.49;93.44;97902.41;4996149;28;20046;-79
2023/11/02 04:06:52;;;;;;;7.22;3.20;;;;;;;11.54;92.93;97878.97;4995750;28;20074;-78
2023/11/02 04:09:21;;;;;;;4.03;2.45;;;;;;;11.50;93.07;97875.22;4996178;28;20062;-79
2023/11/02 04:11:59;;;;;;;5.70;2.67;;;;;;;11.56;92.92;97876.91;4994970;28;20051;-80
2023/11/02 04:14:27;;;;;;;6.05;2.58;;;;;;;11.51;92.90;97876.81;4995301;28;20058;-79
2023/11/02 04:16:54;;;;;;;7.53;2.90;;;;;;;11.48;93.99;97881.69;5003517;28;20560;-79
2023/11/02 04:19:21;;;;;;;6.45;2.55;;;;;;;11.45;93.70;97869.84;4995714;28;20110;-80
2023/11/02 04:21:48;;;;;;;7.72;3.00;;;;;;;11.47;93.71;97840.81;5003692;28;20078;-78
2023/11/02 04:24:15;;;;;;;4.85;2.97;;;;;;;11.38;93.80;97801.09;4998935;28;20082;-79
2023/11/02 04:26:42;;;;;;;3.60;2.20;;;;;;;11.40;93.24;97778.09;4998656;28;20070;-79
2023/11/02 04:29:10;;;;;;;5.75;2.30;;;;;;;11.37;93.80;97762.84;4998716;28;20093;-79
2023/11/02 04:31:37;;;;;;;4.85;2.42;;;;;;;11.37;93.56;97720.97;4999140;28;20042;-80
2023/11/02 04:34:03;;;;;;;4.40;2.55;;;;;;;11.35;93.27;97707.31;5003202;28;20487;-78
2023/11/02 04:36:30;;;;;;;6.45;2.83;;;;;;;11.34;93.40;97676.97;5004241;28;20103;-79
2023/11/02 04:38:56;;;;;;;6.65;2.47;;;;;;;11.29;93.08;97634.97;5004627;28;20089;-79
2023/11/02 04:41:23;;;;;;;7.95;2.67;;;;;;;11.36;92.43;97572.78;5000298;28;20505;-78
2023/11/02 04:43:50;;;;;;;7.45;2.40;;;;;;;11.40;91.79;97552.94;5007229;28;20145;-78
2023/11/02 04:46:18;;;;;;;4.90;2.67;;;;;;;11.32;92.79;97558.59;4999524;28;20070;-77
2023/11/02 04:48:44;;;;;;;7.03;3.25;;;;;;;11.21;93.41;97538.50;5004608;28;20056;-77
2023/11/02 04:51:11;;;;;;;5.60;2.85;;;;;;;11.13;94.17;97563.22;5003368;28;20125;-78
2023/11/02 04:53:38;;;;;;;5.45;2.33;;;;;;;11.15;94.57;97583.94;4995277;28;20128;-77
2023/11/02 04:56:05;;;;;;;4.85;2.60;;;;;;;11.13;94.96;97578.13;4995986;28;20137;-78
2023/11/02 04:58:37;;;;;;;11.95;2.70;;;;;;;11.13;94.90;97560.59;4998838;28;20086;-77
2023/11/02 05:01:06;;;;;;;4.88;2.05;;;;;;;11.14;94.59;97525.56;4996880;28;20060;-80
2023/11/02 05:03:34;;;;;;;5.18;2.70;;;;;;;11.20;94.10;97522.00;5005208;28;20400;-79
2023/11/02 05:06:00;;;;;;;6.40;2.58;;;;;;;11.11;94.49;97496.44;5007012;28;20157;-79
2023/11/02 05:08:27;;;;;;;3.17;2.00;;;;;;;11.08;94.76;97478.59;4999035;28;20501;-80
2023/11/02 05:10:53;;;;;;;5.88;1.98;;;;;;;11.14;94.51;97480.28;4999513;28;20129;-80
2023/11/02 05:13:20;;;;;;;4.80;2.20;;;;;;;11.13;94.01;97426.34;4998751;28;20050;-80
2023/11/02 05:15:47;;;;;;;5.95;2.50;;;;;;;11.09;94.42;97440.94;4999723;28;20056;-79
2023/11/02 05:18:13;;;;;;;5.57;2.50;;;;;;;11.11;94.42;97439.66;4999067;28;20179;-79
2023/11/02 05:20:41;;;;;;;4.10;2.28;;;;;;;11.23;93.50;97434.38;4997148;28;20561;-79
2023/11/02 05:23:10;;;;;;;4.00;2.28;;;;;;;11.15;93.26;97414.63;5001250;28;20468;-80
2023/11/02 05:25:37;;;;;;;2.47;1.80;;;;;;;11.25;92.33;97372.13;5014962;28;20110;-80
2023/11/02 05:28:04;;;;;;;5.55;2.13;;;;;;;11.28;91.99;97382.09;5010377;28;20100;-79
2023/11/02 05:30:31;;;;;;;3.22;2.22;;;;;;;11.29;92.13;97431.59;5003484;28;20114;-79
2023/11/02 05:32:57;;;;;;;3.80;2.20;;;;;;;11.34;92.91;97464.91;5005793;28;20047;-80
2023/11/02 05:35:24;;;;;;;5.97;2.58;;;;;;;11.30;92.47;97489.97;5000553;28;20050;-80
2023/11/02 05:37:52;;;;;;;5.75;2.38;;;;;;;11.20;93.02;97379.88;5010299;28;20101;-79
2023/11/02 05:40:18;;;;;;;5.60;2.30;;;;;;;11.21;93.38;97402.41;5010653;28;20069;-79
2023/11/02 05:42:45;;;;;;;3.97;2.72;;;;;;;11.20;93.27;97408.69;5002127;28;20046;-80
2023/11/02 05:45:12;;;;;;;5.20;2.28;;;;;;;11.29;93.09;97418.50;5008085;28;20976;-80
2023/11/02 05:47:39;;;;;;;4.40;1.90;;;;;;;11.31;92.94;97413.03;4997184;28;20153;-78
2023/11/02 05:50:07;;;;;;;4.63;1.65;;;;;;;11.28;93.00;97371.63;5011506;28;20054;-79
2023/11/02 05:52:34;;;;;;;3.75;1.92;;;;;;;11.30;92.74;97353.88;5003310;28;20078;-79
2023/11/02 05:55:02;;;;;;;4.07;2.33;;;;;;;11.43;92.05;97378.91;4999795;28;20094;-80
2023/11/02 05:57:29;;;;;;;3.95;2.05;;;;;;;11.44;91.98;97381.28;5002291;28;20050;-80
2023/11/02 05:59:57;;;;;;;5.25;2.47;;;;;;;11.47;91.88;97422.69;5004055;28;20070;-79
2023/11/02 06:02:23;;;;;;;4.65;2.30;;;;;;;11.51;91.86;97428.25;5019590;28;20042;-80
2023/11/02 06:04:50;;;;;;;5.00;2.35;;;;;;;11.52;91.93;97435.84;5007562;28;20096;-80
2023/11/02 06:07:16;;;;;;;7.38;2.25;;;;;;;11.58;92.41;97460.28;5002970;28;20123;-80
2023/11/02 06:09:44;;;;;;;3.97;2.00;;;;;;;11.51;93.13;97452.59;4999637;28;20125;-79
2023/11/02 06:12:12;;;;;;;4.50;2.42;;;;;;;11.53;93.66;97445.31;5011504;28;20042;-80
2023/11/02 06:14:46;;;;;;;5.03;2.03;;;;;;;11.48;93.89;97432.13;5008936;28;20080;-81
2023/11/02 06:17:15;;;;;;;3.00;1.98;;;;;;;11.53;93.90;97420.94;5010516;28;20054;-81
2023/11/02 06:19:48;;;;;;;5.40;2.10;;;;;;;11.52;93.81;97448.94;5017979;28;20055;-80
2023/11/02 06:22:17;;;;;;;4.68;1.90;;;;;;;11.50;94.30;97424.84;5019031;28;20053;-80
2023/11/02 06:24:49;;;;;;;5.70;2.00;;;;;;;11.45;94.60;97421.34;5006890;28;20419;-79
2023/11/02 06:27:22;;;;;;;5.67;2.20;;;;;;;11.35;95.13;97413.31;5007165;28;20070;-79
2023/11/02 06:29:58;;;;;;;4.53;1.85;;;;;;;11.41;95.00;97428.09;5009259;28;20054;-79
2023/11/02 06:32:28;;;;;;;13.27;6.53;;;;;;;11.46;95.25;97443.88;5002461;28;20052;-80
2023/11/02 06:57:07;;;;;;;2.90;1.85;;;;;;;12.10;94.93;97431.97;6256758;22;20020;-90
2023/11/02 06:59:33;;;;;;;3.20;1.83;;;;;;;12.10;94.94;97429.34;6256332;23;20020;-91
2023/11/02 07:02:00;;;;;;;3.45;1.65;;;;;;;12.09;94.71;97425.13;6259372;22;20020;-90
2023/11/02 07:04:26;;;;;;;3.33;1.88;;;;;;;12.09;94.61;97414.66;6258474;23;20024;-91
2023/11/02 07:06:53;;;;;;;3.97;2.10;;;;;;;11.83;94.68;97410.09;6259936;23;20023;-91
2023/11/02 07:09:25;;;;;;;3.65;1.67;;;;;;;12.05;94.86;97413.56;6261111;23;20050;-91
2023/11/02 07:25:23;;;;;;;2.53;1.48;;;;;;;11.76;97.90;97405.03;6313178;22;20037;-80
2023/11/02 07:28:16;;;;;;;3.78;1.63;;;;;;;11.78;98.56;97420.56;6318083;22;20023;-79
2023/11/02 07:30:52;;;;;;;2.78;1.70;;;;;;;11.53;99.17;97410.47;6318890;22;20035;-80
2023/11/02 07:34:20;;;;;;;;;;;;;;;;;;;;;
2023/11/02 07:37:09;;;;;;;4.68;1.98;;;;;;;11.49;100.00;97406.75;6272964;22;20011;-80
2023/11/02 07:50:34;;;;;;;2.30;1.70;;;;;;;11.32;100.00;97366.72;6063771;23;20027;-80
2023/11/02 07:56:20;;;;;;;5.10;1.77;;;;;;;11.28;100.00;97345.47;6313087;22;20023;-80
2023/11/02 08:47:37;;;;;;;3.72;1.60;;;;;;;12.42;98.95;97268.69;6310731;22;20012;-80
2023/11/02 09:24:41;;;;;;;3.83;1.83;;;;;;;13.43;95.75;97213.47;6070381;23;20025;-80
2023/11/02 09:27:27;;;;;;;;;;;;;;;13.58;94.55;97203.81;6088230;23;20049;-81
2023/11/02 10:00:23;;;;;;;5.78;2.30;;;;;;;14.28;84.85;97141.84;6244510;22;20451;-80
2023/11/02 10:02:52;;;;;;;5.85;2.03;;;;;;;14.31;84.93;97129.22;6281689;22;20019;-80
2023/11/02 10:05:26;;;;;;;6.20;2.22;;;;;;;14.45;83.92;97135.53;6266922;22;20020;-78
2023/11/02 10:08:03;;;;;;;6.35;1.75;;;;;;;14.43;83.15;97127.13;6259834;22;20024;-80
2023/11/02 10:10:45;;;;;;;6.03;2.03;;;;;;;14.53;81.76;97121.84;6260563;22;20322;-81
2023/11/02 10:13:23;;;;;;;9.02;2.83;;;;;;;14.42;81.90;97133.44;6248853;22;20023;-80
2023/11/02 10:16:12;;;;;;;4.78;2.17;;;;;;;14.59;81.43;97150.53;6248124;22;20024;-80
2023/11/02 10:18:50;;;;;;;5.88;2.13;;;;;;;14.50;80.79;97140.78;6249079;22;20079;-81
2023/11/02 10:21:31;;;;;;;5.90;2.38;;;;;;;14.56;81.07;97131.84;6250939;22;20028;-81
2023/11/02 10:24:13;;;;;;;6.82;2.55;;;;;;;14.61;81.19;97134.47;6249593;22;20367;-82
2023/11/02 10:26:54;;;;;;;9.63;2.63;;;;;;;14.45;80.63;97106.59;6249404;22;20032;-81
2023/11/02 10:29:37;;;;;;;5.28;1.23;;;;;;;14.54;80.14;97107.66;6247131;23;20050;-79
2023/11/02 10:32:49;;;;;;;7.30;2.08;;;;;;;14.59;79.98;97099.75;6245612;22;20024;-79
2023/11/02 10:35:29;;;;;;;7.57;1.98;;;;;;;14.70;79.70;97127.56;6245119;22;20016;-81
2023/11/02 10:38:20;;;;;;;8.57;2.40;;;;;;;14.70;80.01;97148.63;6246166;22;20050;-80
2023/11/02 10:41:15;;;;;;;5.43;2.45;;;;;;;14.65;79.36;97119.69;6246999;22;20020;-80
2023/11/02 10:43:53;;;;;;;5.85;2.38;;;;;;;14.73;79.10;97113.88;6185705;23;20047;-79
2023/11/02 10:46:29;;;;;;;5.18;1.77;;;;;;;14.84;79.16;97122.53;6245806;22;20119;-80
2023/11/02 10:49:18;;;;;;;5.90;2.28;;;;;;;14.92;78.64;97098.31;6247023;22;20020;-80
2023/11/02 10:52:08;;;;;;;10.40;2.38;;;;;;;14.96;77.22;97072.22;6248547;22;20034;-81
2023/11/02 10:54:48;;;;;;;7.35;2.80;;;;;;;14.89;77.05;97073.31;6248768;22;20097;-80
2023/11/02 10:57:34;;;;;;;9.70;2.58;;;;;;;14.93;76.43;97053.28;6247946;22;20109;-80
2023/11/02 11:00:17;;;;;;;9.10;2.40;;;;;;;14.87;75.80;97050.94;6248426;22;20020;-81
2023/11/02 11:06:11;;;;;;;6.47;2.30;;;;;;;14.98;76.47;97073.53;6248190;22;20028;-80
2023/11/02 11:08:59;;;;;;;9.80;2.80;;;;;;;14.95;75.94;97068.81;6249262;22;20020;-81
2023/11/02 11:11:53;;;;;;;9.77;2.58;;;;;;;14.79;75.58;97043.59;6250619;22;20020;-81
2023/11/02 11:14:40;;;;;;;7.35;2.50;;;;;;;14.79;75.81;97036.50;6250538;22;20042;-81
2023/11/02 11:17:33;;;;;;;5.85;2.13;;;;;;;14.83;75.89;97048.06;6250241;22;20027;-82
2023/11/02 11:20:25;;;;;;;8.20;2.25;;;;;;;14.71;75.61;97044.16;6250310;22;20020;-82
2023/11/02 11:23:03;;;;;;;7.28;2.63;;;;;;;14.65;74.63;97024.22;6250063;22;20099;-81
2023/11/02 11:25:38;;;;;;;7.82;2.83;;;;;;;14.77;74.70;97012.28;6253335;22;20036;-82
2023/11/02 11:28:38;;;;;;;13.82;2.97;;;;;;;14.92;72.06;96982.47;6251142;22;20016;-81
2023/11/02 11:31:32;;;;;;;11.40;2.67;;;;;;;15.29;72.18;97013.56;6251799;22;20051;-81
2023/11/02 11:34:23;;;;;;;10.30;2.53;;;;;;;15.34;71.75;97015.38;6250532;22;20047;-79
2023/11/02 11:37:34;;;;;;;6.53;2.50;;;;;;;15.06;71.97;97016.91;6245815;22;20423;-80
2023/11/02 11:40:10;;;;;;;8.23;2.75;;;;;;;15.07;71.90;96997.41;6251456;23;20028;-81
2023/11/02 11:46:08;;;;;;;10.68;2.35;;;;;;;15.17;72.38;97018.38;6237935;22;20042;-81
2023/11/02 11:49:05;;;;;;;5.10;1.95;;;;;;;15.11;71.53;96999.22;6251805;22;20108;-80
2023/11/02 11:51:46;;;;;;;13.68;4.38;;;;;;;15.29;71.70;97034.66;6242038;22;20020;-81
2023/11/02 11:54:40;;;;;;;9.32;2.58;;;;;;;15.33;71.20;97011.97;6252777;22;20078;-81
2023/11/02 11:57:48;;;;;;;;;;;;;;;;;;;;;
2023/11/02 12:00:21;;;;;;;11.13;3.33;;;;;;;15.50;69.97;97033.47;6251272;22;20071;-81
2023/11/02 12:03:04;;;;;;;;;;;;;;;15.57;70.49;97046.34;6252433;22;20016;-80
2023/11/02 12:06:00;;;;;;;13.52;2.72;;;;;;;15.29;69.20;96992.50;6251184;22;20380;-80
2023/11/02 12:08:33;;;;;;;9.52;2.85;;;;;;;15.29;68.68;96997.78;6244393;22;20086;-80
2023/11/02 12:11:37;;;;;;;11.13;2.60;;;;;;;15.31;69.16;97002.75;6250881;22;20073;-81
2023/11/02 12:14:19;;;;;;;9.80;2.90;;;;;;;15.32;69.34;97017.50;6250503;22;20020;-79
2023/11/02 12:17:08;;;;;;;11.95;3.63;;;;;;;15.38;69.32;97042.75;6254790;22;20091;-82
2023/11/02 12:20:07;;;;;;;11.50;2.55;;;;;;;15.39;69.27;97018.78;6251873;22;20022;-82
2023/11/02 12:22:57;;;;;;;10.98;3.05;;;;;;;15.32;69.17;97022.78;6254358;22;20082;-80
2023/11/02 12:29:03;;;;;;;12.30;2.70;;;;;;;15.19;69.46;97008.38;6247583;22;20031;-79
2023/11/02 12:31:56;;;;;;;15.73;3.10;;;;;;;15.23;68.65;96998.84;6255146;22;20036;-82
2023/11/02 12:34:27;;;;;;;14.77;2.95;;;;;;;15.27;68.67;97016.47;6255242;22;20078;-81
2023/11/02 12:36:57;;;;;;;11.48;3.40;;;;;;;15.45;68.31;97017.69;6256177;22;20024;-81
2023/11/02 12:39:40;;;;;;;8.45;2.90;;;;;;;15.50;68.51;97025.56;6251081;22;20109;-80
2023/11/02 12:42:12;;;;;;;11.93;4.10;;;;;;;15.57;67.69;97035.81;6250648;22;20212;-82
2023/11/02 12:45:16;;;;;;;15.13;3.42;;;;;;;15.65;67.29;97029.13;6250825;22;20027;-81
2023/11/02 12:51:21;;;;;;;12.73;3.25;;;;;;;15.38;67.44;97026.94;6226496;22;20020;-81
2023/11/02 12:53:56;;;;;;;13.70;3.30;;;;;;;15.33;67.33;97011.97;6250789;22;20468;-81
2023/11/02 12:56:35;;;;;;;12.57;3.33;;;;;;;15.20;66.78;97004.66;6253281;22;20024;-80
2023/11/02 12:59:15;;;;;;;10.77;3.33;;;;;;;15.14;67.94;96990.75;6250661;22;20016;-80
2023/11/02 13:02:05;;;;;;;13.30;3.55;;;;;;;15.30;68.48;97019.63;6250550;23;20099;-81
2023/11/02 13:05:06;;;;;;;15.85;3.53;;;;;;;15.17;67.97;96999.94;6249445;22;20027;-80
2023/11/02 13:11:55;;;;;;;15.98;3.00;;;;;;;15.16;67.27;97001.78;6116033;23;20025;-83
2023/11/02 13:14:50;;;;;;;13.10;3.00;;;;;;;15.07;68.42;97005.31;6110066;23;20363;-82
2023/11/02 13:17:48;;;;;;;10.38;3.30;;;;;;;15.11;67.85;97027.41;6157795;23;20029;-82
2023/11/02 13:42:53;;;;;;;8.02;2.65;;;;;;;14.57;70.55;97017.66;6110421;22;20049;-81
2023/11/02 13:45:39;;;;;;;9.82;2.83;;;;;;;14.53;71.32;97022.66;6310771;22;20035;-81
2023/11/02 13:48:06;;;;;;;11.88;2.47;;;;;;;14.39;71.68;97047.16;6310741;22;20019;-81
2023/11/02 13:50:52;;;;;;;8.38;2.80;;;;;;;14.23;72.24;97057.69;6311503;22;20019;-81
2023/11/02 13:53:46;;;;;;;8.15;2.55;;;;;;;14.33;72.32;97071.88;6310026;22;20015;-82
2023/11/02 13:56:31;;;;;;;8.82;2.58;;;;;;;14.20;72.96;97070.56;6299328;22;20034;-81
2023/11/02 14:01:57;;;;;;;7.75;2.53;;;;;;;14.08;74.46;97077.97;6285985;22;20053;-81
2023/11/02 14:04:24;;;;;;;6.30;2.45;;;;;;;13.95;75.21;97060.91;6310593;22;20059;-80
2023/11/02 14:06:56;;;;;;;17.25;3.47;;;;;;;13.83;75.67;97055.13;6311834;22;20023;-81
2023/11/02 14:09:23;;;;;;;14.63;3.15;;;;;;;13.93;76.15;97052.47;6310887;22;20344;-79
2023/11/02 14:11:51;;;;;;;13.93;3.20;;;;;;;13.90;74.70;97042.50;6309329;22;20023;-81
2023/11/02 14:14:18;;;;;;;12.73;3.45;;;;;;;13.95;75.24;97053.00;6309746;22;20058;-82
2023/11/02 14:16:45;;;;;;;13.18;3.60;;;;;;;13.95;75.72;97056.44;6310319;22;20062;-80
2023/11/02 14:19:12;;;;;;;8.45;3.05;;;;;;;13.96;75.01;97038.81;6310324;22;20022;-80
2023/11/02 14:21:39;;;;;;;15.30;5.13;;;;;;;14.00;75.35;97071.41;6310935;22;20069;-80
2023/11/02 14:24:07;;;;;;;8.98;3.40;;;;;;;14.01;73.77;97051.16;6310245;22;20023;-81
2023/11/02 14:26:33;;;;;;;14.77;3.70;;;;;;;14.01;73.52;97036.19;6310636;22;20088;-80
2023/11/02 14:29:01;;;;;;;11.60;3.40;;;;;;;13.95;73.12;97035.41;6311357;22;20046;-80
2023/11/02 14:31:28;;;;;;;14.77;3.65;;;;;;;13.94;72.81;97030.41;6316100;22;20019;-82
2023/11/02 14:33:55;;;;;;;16.23;3.60;;;;;;;13.87;72.02;97014.13;6310583;22;20047;-80
2023/11/02 14:36:23;;;;;;;16.55;3.97;;;;;;;13.87;72.33;97008.88;6309936;22;20057;-81
2023/11/02 14:38:50;;;;;;;11.43;3.10;;;;;;;13.85;72.87;97032.78;6310356;22;20016;-80
2023/11/02 14:41:17;;;;;;;11.70;3.13;;;;;;;13.81;73.41;97023.06;6310168;22;20070;-81
2023/11/02 14:43:43;;;;;;;8.70;3.30;;;;;;;13.78;74.25;97050.66;6310651;22;20023;-81
2023/11/02 14:46:12;;;;;;;9.45;4.03;;;;;;;13.71;74.62;97062.47;6311419;22;20359;-81
2023/11/02 14:48:39;;;;;;;8.60;2.80;;;;;;;13.68;74.46;97071.69;6310828;22;20068;-81
2023/11/02 14:51:06;;;;;;;13.02;3.30;;;;;;;13.71;73.37;97068.50;6311339;22;20023;-81
2023/11/02 14:53:33;;;;;;;19.38;4.05;;;;;;;13.72;73.25;97058.78;6310772;22;20055;-80
2023/11/02 14:56:00;;;;;;;11.55;4.07;;;;;;;13.71;72.25;97070.34;6309574;22;20023;-80
2023/11/02 14:58:27;;;;;;;9.50;3.05;;;;;;;13.67;72.60;97050.94;6310381;22;20015;-80
2023/11/02 15:00:53;;;;;;;13.93;4.10;;;;;;;13.64;72.95;97059.34;6312754;22;20058;-80
2023/11/02 15:03:21;;;;;;;11.45;3.78;;;;;;;13.65;72.20;97039.91;6311880;22;20381;-79
2023/11/02 15:05:50;;;;;;;19.25;3.78;;;;;;;13.56;72.98;97050.91;6312826;22;20030;-80
2023/11/02 15:08:18;;;;;;;8.85;2.92;;;;;;;13.58;72.17;97037.53;6311900;22;20026;-79
2023/11/02 15:10:44;;;;;;;12.38;3.28;;;;;;;13.54;72.21;97037.25;6313491;22;20029;-79
2023/11/02 15:13:11;;;;;;;9.52;3.40;;;;;;;13.44;72.90;97047.75;6312128;22;20051;-80
2023/11/02 15:15:37;;;;;;;13.38;3.58;;;;;;;13.42;72.85;97049.84;6311691;22;20027;-80
2023/11/02 15:18:05;;;;;;;14.95;4.90;;;;;;;13.47;72.99;97047.22;6313428;22;20471;-80
2023/11/02 15:20:36;;;;;;;9.35;3.03;;;;;;;13.50;72.68;97054.59;6311029;22;20023;-81
2023/11/02 15:23:03;;;;;;;11.20;3.47;;;;;;;13.43;72.88;97061.13;6311661;22;20453;-81
2023/11/02 15:25:29;;;;;;;12.52;3.92;;;;;;;13.36;73.14;97058.75;6311977;22;20047;-80
2023/11/02 15:27:56;;;;;;;13.30;3.70;;;;;;;13.27;74.20;97079.50;6311778;22;20023;-81
2023/11/02 15:30:22;;;;;;;15.65;4.07;;;;;;;13.26;73.81;97072.66;6310912;22;20053;-80
2023/11/02 15:32:49;;;;;;;12.77;3.55;;;;;;;13.27;73.76;97068.19;6311666;22;20023;-80
2023/11/02 15:35:16;;;;;;;15.25;3.53;;;;;;;13.26;73.66;97059.53;6312089;22;20077;-82
2023/11/02 15:37:44;;;;;;;13.48;3.65;;;;;;;13.19;74.14;97074.75;6311814;22;20023;-81